createdAt,value
2023-02-19T00:01:47.734Z,8.80
2023-02-19T00:04:18.174Z,8.93
2023-02-19T00:06:47.287Z,9.07
2023-02-19T00:09:17.038Z,9.14
2023-02-19T00:11:46.296Z,9.07
2023-02-19T00:14:17.779Z,9.18
2023-02-19T00:16:45.597Z,9.04
2023-02-19T00:19:16.991Z,9.11
2023-02-19T00:21:44.745Z,9.11
2023-02-19T00:24:14.283Z,9.26
2023-02-19T00:26:43.096Z,8.98
2023-02-19T00:29:14.545Z,9.25
2023-02-19T00:31:42.365Z,9.08
2023-02-19T00:34:11.522Z,8.57
2023-02-19T00:36:41.381Z,9.09
2023-02-19T00:39:09.447Z,9.15
2023-02-19T00:41:37.235Z,9.07
2023-02-19T00:44:06.770Z,9.17
2023-02-19T00:46:36.604Z,9.14
2023-02-19T00:49:05.203Z,8.73
2023-02-19T00:51:34.799Z,8.99
2023-02-19T00:54:04.041Z,9.08
2023-02-19T00:56:31.943Z,9.03
2023-02-19T00:58:59.686Z,9.00
2023-02-19T01:01:27.530Z,9.11
2023-02-19T01:03:55.217Z,8.97
2023-02-19T01:06:23.166Z,8.97
2023-02-19T01:08:51.115Z,8.67
2023-02-19T01:11:21.180Z,9.02
2023-02-19T01:13:49.132Z,8.99
2023-02-19T01:16:18.900Z,8.98
2023-02-19T01:18:47.689Z,8.75
2023-02-19T01:21:17.865Z,8.82
2023-02-19T01:23:45.687Z,8.91
2023-02-19T01:26:16.017Z,8.82
2023-02-19T01:28:46.018Z,8.97
2023-02-19T01:31:15.675Z,8.86
2023-02-19T01:33:46.195Z,8.87
2023-02-19T01:36:14.640Z,8.95
2023-02-19T01:38:42.845Z,9.07
2023-02-19T01:41:13.372Z,9.12
2023-02-19T01:46:36.079Z,8.85
2023-02-19T01:49:07.309Z,8.75
2023-02-19T01:51:37.530Z,8.87
2023-02-19T01:54:08.520Z,8.68
2023-02-19T01:56:38.544Z,8.84
2023-02-19T01:59:08.450Z,9.04
2023-02-19T02:01:39.970Z,8.98
2023-02-19T02:04:10.847Z,8.99
2023-02-19T02:06:43.375Z,8.54
2023-02-19T02:09:28.832Z,8.73
2023-02-19T02:11:56.422Z,8.51
2023-02-19T02:14:26.991Z,8.73
2023-02-19T02:17:10.183Z,8.41
2023-02-19T02:20:08.709Z,8.20
2023-02-19T02:22:39.359Z,8.41
2023-02-19T02:25:28.403Z,8.13
2023-02-19T02:28:06.295Z,8.03
2023-02-19T02:30:43.109Z,7.84
2023-02-19T02:33:18.503Z,7.88
2023-02-19T02:35:51.446Z,7.48
2023-02-19T02:38:23.738Z,7.70
2023-02-19T02:40:52.268Z,7.02
2023-02-19T02:43:19.833Z,7.23
2023-02-19T02:45:49.134Z,7.04
2023-02-19T02:48:23.688Z,7.14
2023-02-19T02:50:54.561Z,7.66
2023-02-19T02:53:44.828Z,7.01
2023-02-19T02:56:14.492Z,7.15
2023-02-19T02:58:43.387Z,6.83
2023-02-19T03:01:35.450Z,6.76
2023-02-19T03:04:07.451Z,6.89
2023-02-19T03:06:37.216Z,7.07
2023-02-19T03:09:11.662Z,7.43
2023-02-19T03:12:00.432Z,7.68
2023-02-19T03:14:52.264Z,7.40
2023-02-19T03:17:44.326Z,7.50
2023-02-19T03:20:15.280Z,7.40
2023-02-19T03:22:46.038Z,7.86
2023-02-19T03:25:35.150Z,8.02
2023-02-19T03:28:06.294Z,7.71
2023-02-19T03:30:37.150Z,7.99
2023-02-19T03:33:09.668Z,7.52
2023-02-19T03:35:42.815Z,7.65
2023-02-19T03:38:18.619Z,7.95
2023-02-19T03:40:56.221Z,8.00
2023-02-19T03:43:31.987Z,7.99
2023-02-19T03:46:07.791Z,8.19
2023-02-19T03:48:39.150Z,8.15
2023-02-19T03:51:21.574Z,8.07
2023-02-19T03:53:57.848Z,8.15
2023-02-19T03:56:32.013Z,8.21
2023-02-19T03:59:03.095Z,8.28
2023-02-19T04:01:36.115Z,8.21
2023-02-19T04:04:14.175Z,8.20
2023-02-19T04:06:44.908Z,8.25
2023-02-19T04:09:15.845Z,8.29
2023-02-19T04:11:44.529Z,8.39
2023-02-19T04:14:18.790Z,8.42
2023-02-19T04:16:52.257Z,8.32
2023-02-19T04:19:24.568Z,8.29
2023-02-19T04:21:54.865Z,8.30
2023-02-19T04:24:27.400Z,8.09
2023-02-19T04:26:55.981Z,8.15
2023-02-19T04:29:23.612Z,8.18
2023-02-19T04:31:51.337Z,8.25
2023-02-19T04:34:18.948Z,8.38
2023-02-19T04:36:47.953Z,8.45
2023-02-19T04:39:15.685Z,8.42
2023-02-19T04:41:43.314Z,8.35
2023-02-19T04:44:10.931Z,8.26
2023-02-19T04:46:38.540Z,8.45
2023-02-19T04:49:06.189Z,8.22
2023-02-19T04:51:33.789Z,7.99
2023-02-19T04:54:02.832Z,7.97
2023-02-19T04:56:30.437Z,7.95
2023-02-19T04:58:58.559Z,7.85
2023-02-19T05:01:26.241Z,8.02
2023-02-19T05:03:54.073Z,8.07
2023-02-19T05:06:21.726Z,8.05
2023-02-19T05:08:49.374Z,8.01
2023-02-19T05:11:18.402Z,8.11
2023-02-19T05:13:45.987Z,8.12
2023-02-19T05:16:16.110Z,8.06
2023-02-19T05:18:46.203Z,8.04
2023-02-19T05:21:14.570Z,8.02
2023-02-19T05:23:42.691Z,7.95
2023-02-19T05:26:15.322Z,7.77
2023-02-19T05:28:44.258Z,7.75
2023-02-19T05:31:13.136Z,7.73
2023-02-19T05:33:42.880Z,7.74
2023-02-19T05:36:13.066Z,7.68
2023-02-19T05:38:41.610Z,7.59
2023-02-19T05:41:11.847Z,7.20
2023-02-19T05:43:39.986Z,7.38
2023-02-19T05:46:09.864Z,7.32
2023-02-19T05:48:37.838Z,7.25
2023-02-19T05:51:07.780Z,7.29
2023-02-19T05:53:36.248Z,7.42
2023-02-19T05:56:04.094Z,7.17
2023-02-19T05:58:31.803Z,7.03
2023-02-19T06:00:59.415Z,6.86
2023-02-19T06:03:28.682Z,6.52
2023-02-19T06:05:56.307Z,6.77
2023-02-19T06:08:23.906Z,6.53
2023-02-19T06:10:51.463Z,6.73
2023-02-19T06:13:19.052Z,6.34
2023-02-19T06:15:46.708Z,6.32
2023-02-19T06:18:14.312Z,5.94
2023-02-19T06:20:43.338Z,6.10
2023-02-19T06:23:10.926Z,6.27
2023-02-19T06:25:38.603Z,6.42
2023-02-19T06:28:06.580Z,6.29
2023-02-19T06:30:34.191Z,6.26
2023-02-19T06:33:01.795Z,6.45
2023-02-19T06:35:29.515Z,6.50
2023-02-19T06:37:58.445Z,6.69
2023-02-19T06:40:26.051Z,6.28
2023-02-19T06:42:53.634Z,6.43
2023-02-19T06:45:21.295Z,6.56
2023-02-19T06:47:48.867Z,6.80
2023-02-19T06:50:16.727Z,6.69
2023-02-19T06:52:44.301Z,6.79
2023-02-19T06:55:13.229Z,6.81
2023-02-19T06:57:40.830Z,6.88
2023-02-19T07:00:10.052Z,6.89
2023-02-19T07:02:37.659Z,6.80
2023-02-19T07:05:05.777Z,6.85
2023-02-19T07:07:33.392Z,6.98
2023-02-19T07:10:00.960Z,6.89
2023-02-19T07:12:29.920Z,6.76
2023-02-19T07:14:57.492Z,7.05
2023-02-19T07:17:25.065Z,7.28
2023-02-19T07:19:52.656Z,7.38
2023-02-19T07:22:20.234Z,7.43
2023-02-19T07:24:48.063Z,7.70
2023-02-19T07:27:15.721Z,7.88
2023-02-19T07:29:44.670Z,8.10
2023-02-19T07:32:12.295Z,8.32
2023-02-19T07:34:39.950Z,8.60
2023-02-19T07:37:07.527Z,8.85
2023-02-19T07:39:35.177Z,8.79
2023-02-19T07:42:02.750Z,9.04
2023-02-19T07:44:30.357Z,8.98
2023-02-19T07:46:59.295Z,9.21
2023-02-19T07:49:26.953Z,9.55
2023-02-19T07:51:54.536Z,9.50
2023-02-19T07:54:22.116Z,9.33
2023-02-19T07:56:49.797Z,9.24
2023-02-19T07:59:19.391Z,9.09
2023-02-19T08:02:04.665Z,9.00
2023-02-19T08:04:33.601Z,8.93
2023-02-19T08:07:01.214Z,8.95
2023-02-19T08:09:28.791Z,10.40
2023-02-19T08:12:14.061Z,11.69
2023-02-19T08:14:41.642Z,14.43
2023-02-19T08:17:09.277Z,15.53
2023-02-19T08:19:38.349Z,16.51
2023-02-19T08:22:05.961Z,17.07
2023-02-19T08:24:33.873Z,18.55
2023-02-19T08:27:01.453Z,19.05
2023-02-19T08:29:29.038Z,20.09
2023-02-19T08:31:56.639Z,18.83
2023-02-19T08:34:24.253Z,20.74
2023-02-19T08:36:53.179Z,20.37
2023-02-19T08:39:21.176Z,20.39
2023-02-19T08:41:48.951Z,20.22
2023-02-19T08:44:16.562Z,21.03
2023-02-19T08:46:44.131Z,20.88
2023-02-19T08:49:11.723Z,20.80
2023-02-19T08:51:39.391Z,21.06
2023-02-19T08:54:08.371Z,21.43
2023-02-19T08:56:35.979Z,21.11
2023-02-19T08:59:03.587Z,20.49
2023-02-19T09:01:31.251Z,19.86
2023-02-19T09:03:58.979Z,20.20
2023-02-19T09:06:26.663Z,20.20
2023-02-19T09:08:54.365Z,17.48
2023-02-19T09:11:23.372Z,15.62
2023-02-19T09:13:51.016Z,13.40
2023-02-19T09:16:18.667Z,12.12
2023-02-19T09:18:46.725Z,12.27
2023-02-19T09:21:14.382Z,12.11
2023-02-19T09:23:41.954Z,10.71
2023-02-19T09:26:11.438Z,11.57
2023-02-19T09:28:41.861Z,11.88
2023-02-19T09:31:12.124Z,11.70
2023-02-19T09:33:43.419Z,10.56
2023-02-19T09:36:11.770Z,10.97
2023-02-19T09:38:40.514Z,10.43
2023-02-19T09:41:11.209Z,10.41
2023-02-19T09:43:40.386Z,9.96
2023-02-19T09:46:22.163Z,10.29
2023-02-19T09:48:49.974Z,9.78
2023-02-19T09:51:18.226Z,9.87
2023-02-19T09:53:49.956Z,10.16
2023-02-19T09:56:18.661Z,10.35
2023-02-19T09:58:50.761Z,10.74
2023-02-19T10:01:19.502Z,10.33
2023-02-19T10:03:49.546Z,10.41
2023-02-19T10:06:21.731Z,9.29
2023-02-19T10:08:51.304Z,9.17
2023-02-19T10:11:19.878Z,8.74
2023-02-19T10:13:52.418Z,8.70
2023-02-19T10:16:23.582Z,8.92
2023-02-19T10:18:51.444Z,8.76
2023-02-19T10:21:21.502Z,9.20
2023-02-19T10:23:53.813Z,9.58
2023-02-19T10:26:21.414Z,8.95
2023-02-19T10:28:50.597Z,8.96
2023-02-19T10:31:21.015Z,9.04
2023-02-19T10:33:51.325Z,9.10
2023-02-19T10:36:29.873Z,9.69
2023-02-19T10:39:00.680Z,9.71
2023-02-19T10:41:29.479Z,9.79
2023-02-19T10:44:04.631Z,9.17
2023-02-19T10:46:36.000Z,8.63
2023-02-19T10:49:06.866Z,9.15
2023-02-19T10:51:37.273Z,8.95
2023-02-19T10:54:07.521Z,8.87
2023-02-19T10:56:37.494Z,8.94
2023-02-19T10:59:25.448Z,9.40
2023-02-19T11:01:58.483Z,9.08
2023-02-19T11:04:33.901Z,9.19
2023-02-19T11:07:09.404Z,9.36
2023-02-19T11:09:40.399Z,9.58
2023-02-19T11:12:10.188Z,9.77
2023-02-19T11:14:43.412Z,9.41
2023-02-19T11:17:23.929Z,9.86
2023-02-19T11:19:54.375Z,10.40
2023-02-19T11:22:31.373Z,10.51
2023-02-19T11:25:05.971Z,10.70
2023-02-19T11:27:34.283Z,10.84
2023-02-19T11:30:41.184Z,11.05
2023-02-19T11:33:23.323Z,11.11
2023-02-19T11:35:53.451Z,10.15
2023-02-19T11:38:21.607Z,9.73
2023-02-19T11:40:55.742Z,10.15
2023-02-19T11:43:41.214Z,9.75
2023-02-19T11:46:18.916Z,9.62
2023-02-19T11:48:55.769Z,9.72
2023-02-19T11:51:36.284Z,9.75
2023-02-19T11:54:16.462Z,9.71
2023-02-19T11:56:45.916Z,9.78
2023-02-19T11:59:21.623Z,9.66
2023-02-19T12:02:20.185Z,9.42
2023-02-19T12:05:08.126Z,9.92
2023-02-19T12:08:17.162Z,9.77
2023-02-19T12:10:58.321Z,10.05
2023-02-19T12:13:40.484Z,9.88
2023-02-19T12:16:16.884Z,10.38
2023-02-19T12:19:04.005Z,10.09
2023-02-19T12:21:45.299Z,10.05
2023-02-19T12:24:32.942Z,9.78
2023-02-19T12:27:13.368Z,9.64
2023-02-19T12:29:56.275Z,9.67
2023-02-19T12:32:44.611Z,10.05
2023-02-19T12:35:27.596Z,10.12
2023-02-19T12:38:07.472Z,9.78
2023-02-19T12:40:45.628Z,10.05
2023-02-19T12:43:18.732Z,10.00
2023-02-19T12:45:50.548Z,10.54
2023-02-19T12:48:26.017Z,10.35
2023-02-19T12:50:59.743Z,10.07
2023-02-19T12:53:38.847Z,9.99
2023-02-19T12:56:13.713Z,10.18
2023-02-19T12:58:45.715Z,9.83
2023-02-19T13:01:20.005Z,9.70
2023-02-19T13:03:53.699Z,10.52
2023-02-19T13:06:31.916Z,10.38
2023-02-19T13:09:06.846Z,10.51
2023-02-19T13:11:39.565Z,10.66
2023-02-19T13:14:17.876Z,11.18
2023-02-19T13:16:49.901Z,10.93
2023-02-19T13:19:17.754Z,11.07
2023-02-19T13:22:09.933Z,10.58
2023-02-19T13:24:41.776Z,10.34
2023-02-19T13:27:31.973Z,10.82
2023-02-19T13:30:11.335Z,10.58
2023-02-19T13:32:54.665Z,10.58
2023-02-19T13:35:51.176Z,10.78
2023-02-19T13:38:20.648Z,10.67
2023-02-19T13:40:55.586Z,11.05
2023-02-19T13:43:27.648Z,10.70
2023-02-19T13:45:58.518Z,10.67
2023-02-19T13:48:28.558Z,10.83
2023-02-19T13:51:29.557Z,10.41
2023-02-19T13:54:02.260Z,10.68
2023-02-19T13:56:41.550Z,10.87
2023-02-19T13:59:36.929Z,10.28
2023-02-19T14:02:17.686Z,10.51
2023-02-19T14:04:51.805Z,10.72
2023-02-19T14:07:45.140Z,10.98
2023-02-19T14:10:35.538Z,11.01
2023-02-19T14:13:03.130Z,11.06
2023-02-19T14:15:44.906Z,11.10
2023-02-19T14:18:45.172Z,11.29
2023-02-19T14:21:19.388Z,10.91
2023-02-19T14:23:53.193Z,10.58
2023-02-19T14:26:22.761Z,10.37
2023-02-19T14:28:52.790Z,10.58
2023-02-19T14:31:27.465Z,10.67
2023-02-19T14:33:57.132Z,10.73
2023-02-19T14:36:34.990Z,10.36
2023-02-19T14:39:06.434Z,10.96
2023-02-19T14:41:39.785Z,10.26
2023-02-19T14:44:12.950Z,10.17
2023-02-19T14:46:48.980Z,10.70
2023-02-19T14:49:25.311Z,10.30
2023-02-19T14:51:56.453Z,10.88
2023-02-19T14:54:38.764Z,11.12
2023-02-19T14:57:16.198Z,10.69
2023-02-19T14:59:54.069Z,10.72
2023-02-19T15:02:23.895Z,10.64
2023-02-19T15:04:51.557Z,10.39
2023-02-19T15:07:23.380Z,10.14
2023-02-19T15:09:54.470Z,10.40
2023-02-19T15:12:26.242Z,10.59
2023-02-19T15:14:56.640Z,10.62
2023-02-19T15:17:27.845Z,10.75
2023-02-19T15:19:56.679Z,10.80
2023-02-19T15:22:28.184Z,10.11
2023-02-19T15:24:55.912Z,10.44
2023-02-19T15:27:25.989Z,10.79
2023-02-19T15:29:54.623Z,10.56
2023-02-19T15:32:26.267Z,10.59
2023-02-19T15:34:58.560Z,10.50
2023-02-19T15:37:27.838Z,10.70
2023-02-19T15:39:57.142Z,10.21
2023-02-19T15:42:29.382Z,10.84
2023-02-19T15:45:01.939Z,10.89
2023-02-19T15:47:35.008Z,10.37
2023-02-19T15:50:09.022Z,10.36
2023-02-19T15:52:46.528Z,10.06
2023-02-19T15:55:30.712Z,10.46
2023-02-19T15:58:08.516Z,10.59
2023-02-19T16:00:42.552Z,10.08
2023-02-19T16:03:17.730Z,9.86
2023-02-19T16:05:45.724Z,10.32
2023-02-19T16:08:21.346Z,10.50
2023-02-19T16:10:57.088Z,10.47
2023-02-19T16:13:28.335Z,10.58
2023-02-19T16:16:03.408Z,10.42
2023-02-19T16:18:31.819Z,10.59
2023-02-19T16:20:59.952Z,10.50
2023-02-19T16:23:27.685Z,10.52
2023-02-19T16:26:00.962Z,10.38
2023-02-19T16:28:34.924Z,10.38
2023-02-19T16:31:05.168Z,10.34
2023-02-19T16:33:36.735Z,10.27
2023-02-19T16:36:27.256Z,9.91
2023-02-19T16:39:24.597Z,10.22
2023-02-19T16:42:22.231Z,10.02
2023-02-19T16:44:51.196Z,10.01
2023-02-19T16:47:32.798Z,9.98
2023-02-19T16:50:03.453Z,9.69
2023-02-19T16:52:31.879Z,9.86
2023-02-19T16:54:59.548Z,9.80
2023-02-19T16:57:27.180Z,9.54
2023-02-19T16:59:56.209Z,9.63
2023-02-19T17:02:25.558Z,9.34
2023-02-19T17:04:55.759Z,9.32
2023-02-19T17:07:24.011Z,9.30
2023-02-19T17:09:51.652Z,9.25
2023-02-19T17:12:20.112Z,9.12
2023-02-19T17:14:47.747Z,9.17
2023-02-19T17:17:16.693Z,9.08
2023-02-19T17:19:44.280Z,9.10
2023-02-19T17:22:16.672Z,9.15
2023-02-19T17:24:44.297Z,9.03
2023-02-19T17:27:13.023Z,8.77
2023-02-19T17:29:41.124Z,8.85
2023-02-19T17:32:08.870Z,8.52
2023-02-19T17:34:37.912Z,8.58
2023-02-19T17:37:05.512Z,9.06
2023-02-19T17:39:33.098Z,9.12
2023-02-19T17:42:00.681Z,9.11
2023-02-19T17:44:28.286Z,9.08
2023-02-19T17:46:55.874Z,9.31
2023-02-19T17:49:23.511Z,9.33
2023-02-19T17:51:52.444Z,9.15
2023-02-19T17:54:20.293Z,8.74
2023-02-19T17:56:47.861Z,8.61
2023-02-19T17:59:17.405Z,8.83
2023-02-19T18:01:46.054Z,8.95
2023-02-19T18:04:13.832Z,8.98
2023-02-19T18:06:42.861Z,9.19
2023-02-19T18:09:15.137Z,9.33
2023-02-19T18:11:45.521Z,9.26
2023-02-19T18:14:13.160Z,9.20
2023-02-19T18:16:48.725Z,9.35
2023-02-19T18:19:17.422Z,9.38
2023-02-19T18:21:45.040Z,9.30
2023-02-19T18:24:13.978Z,9.33
2023-02-19T18:26:42.118Z,9.00
2023-02-19T18:29:09.745Z,9.03
2023-02-19T18:31:37.952Z,9.19
2023-02-19T18:34:05.741Z,8.98
2023-02-19T18:36:34.043Z,9.17
2023-02-19T18:39:01.730Z,9.11
2023-02-19T18:41:30.675Z,9.26
2023-02-19T18:43:59.695Z,9.22
2023-02-19T18:46:27.341Z,9.19
2023-02-19T18:48:55.003Z,9.29
2023-02-19T18:51:23.510Z,9.39
2023-02-19T18:53:51.350Z,9.24
2023-02-19T18:56:19.278Z,9.09
2023-02-19T18:58:50.381Z,9.14
2023-02-19T19:01:18.469Z,9.22
2023-02-19T19:03:46.068Z,9.23
2023-02-19T19:06:13.757Z,9.27
2023-02-19T19:08:41.394Z,9.21
2023-02-19T19:11:09.110Z,9.25
2023-02-19T19:13:36.826Z,9.16
2023-02-19T19:16:06.259Z,8.83
2023-02-19T19:18:38.057Z,8.80
2023-02-19T19:21:06.148Z,9.04
2023-02-19T19:23:33.800Z,9.00
2023-02-19T19:26:01.401Z,8.81
2023-02-19T19:28:31.532Z,8.86
2023-02-19T19:30:59.867Z,8.61
2023-02-19T19:33:29.108Z,8.49
2023-02-19T19:35:56.759Z,8.79
2023-02-19T19:38:24.371Z,8.69
2023-02-19T19:40:51.990Z,8.60
2023-02-19T19:43:19.643Z,8.16
2023-02-19T19:45:47.584Z,8.34
2023-02-19T19:48:15.200Z,8.48
2023-02-19T19:50:44.135Z,8.16
2023-02-19T19:53:11.797Z,8.17
2023-02-19T19:55:39.411Z,8.34
2023-02-19T19:58:07.072Z,8.41
2023-02-19T20:00:34.790Z,8.50
2023-02-19T20:03:03.119Z,8.09
2023-02-19T20:05:30.766Z,8.05
2023-02-19T20:07:59.834Z,8.21
2023-02-19T20:10:27.458Z,8.08
2023-02-19T20:12:55.149Z,8.03
2023-02-19T20:15:23.999Z,8.10
2023-02-19T20:17:51.667Z,8.05
2023-02-19T20:20:20.263Z,8.05
2023-02-19T20:22:47.937Z,8.00
2023-02-19T20:25:17.396Z,7.96
2023-02-19T20:27:45.018Z,8.15
2023-02-19T20:30:15.009Z,8.07
2023-02-19T20:32:42.768Z,7.89
2023-02-19T20:35:10.488Z,7.82
2023-02-19T20:37:39.018Z,7.91
2023-02-19T20:40:08.669Z,7.84
2023-02-19T20:42:37.583Z,7.93
2023-02-19T20:45:05.563Z,7.83
2023-02-19T20:47:33.202Z,8.01
2023-02-19T20:50:00.801Z,7.97
2023-02-19T20:52:28.385Z,7.67
2023-02-19T20:54:57.242Z,7.55
2023-02-19T20:57:25.149Z,7.77
2023-02-19T20:59:54.131Z,8.06
2023-02-19T21:02:24.470Z,7.49
2023-02-19T21:04:52.158Z,7.80
2023-02-19T21:07:19.951Z,8.04
2023-02-19T21:09:47.579Z,7.71
2023-02-19T21:12:15.183Z,7.86
2023-02-19T21:14:43.318Z,7.90
2023-02-19T21:17:12.380Z,7.59
2023-02-19T21:19:39.991Z,7.65
2023-02-19T21:22:07.676Z,7.49
2023-02-19T21:24:35.256Z,8.03
2023-02-19T21:27:02.952Z,7.75
2023-02-19T21:29:30.682Z,7.49
2023-02-19T21:31:58.866Z,7.84
2023-02-19T21:34:29.862Z,7.89
2023-02-19T21:36:57.832Z,7.74
2023-02-19T21:39:27.456Z,7.93
2023-02-19T21:41:55.603Z,8.24
2023-02-19T21:44:23.299Z,8.13
2023-02-19T21:46:53.791Z,7.88
2023-02-19T21:49:21.856Z,7.84
2023-02-19T21:51:50.881Z,8.08
2023-02-19T21:54:25.051Z,8.09
2023-02-19T21:56:53.095Z,8.09
2023-02-19T21:59:24.296Z,7.91
2023-02-19T22:01:51.974Z,8.10
2023-02-19T22:04:21.645Z,7.66
2023-02-19T22:06:51.421Z,7.93
2023-02-19T22:09:18.995Z,7.77
2023-02-19T22:11:46.600Z,7.96
2023-02-19T22:14:20.338Z,7.70
2023-02-19T22:16:48.699Z,7.85
2023-02-19T22:19:16.931Z,7.72
2023-02-19T22:21:45.524Z,7.55
2023-02-19T22:24:21.357Z,7.15
2023-02-19T22:26:50.807Z,7.76
2023-02-19T22:29:21.558Z,7.72
2023-02-19T22:31:49.419Z,7.71
2023-02-19T22:34:18.502Z,7.58
2023-02-19T22:36:49.377Z,7.61
2023-02-19T22:39:23.115Z,8.03
2023-02-19T22:41:51.469Z,8.08
2023-02-19T22:44:19.229Z,8.03
2023-02-19T22:46:49.252Z,7.54
2023-02-19T22:49:17.787Z,7.91
2023-02-19T22:51:51.625Z,7.86
2023-02-19T22:54:21.923Z,8.15
2023-02-19T22:56:49.703Z,7.95
2023-02-19T22:59:17.712Z,8.05
2023-02-19T23:01:45.326Z,8.10
2023-02-19T23:04:13.029Z,8.24
2023-02-19T23:06:43.188Z,7.97
2023-02-19T23:09:17.279Z,7.59
2023-02-19T23:11:46.999Z,7.94
2023-02-19T23:14:17.167Z,7.69
2023-02-19T23:16:44.970Z,7.89
2023-02-19T23:19:15.493Z,7.84
2023-02-19T23:21:45.275Z,7.65
2023-02-19T23:24:13.912Z,8.21
2023-02-19T23:26:43.704Z,8.01
2023-02-19T23:29:15.190Z,8.08
2023-02-19T23:31:42.957Z,8.50
2023-02-19T23:34:10.807Z,7.81
2023-02-19T23:36:41.942Z,8.27
2023-02-19T23:39:10.889Z,8.18
2023-02-19T23:41:38.722Z,8.21
2023-02-19T23:44:06.809Z,8.26
2023-02-19T23:46:35.846Z,7.79
2023-02-19T23:49:03.517Z,7.95
2023-02-19T23:51:31.093Z,8.07
2023-02-19T23:53:58.733Z,8.09
2023-02-19T23:56:28.135Z,8.06
2023-02-19T23:58:55.993Z,7.98
